createdAt,value
2018-07-10T00:01:54.682Z,23.90
2018-07-10T00:04:34.634Z,23.30
2018-07-10T00:06:54.820Z,23.10
2018-07-10T00:09:19.369Z,23.10
2018-07-10T00:11:33.728Z,23.30
2018-07-10T00:13:38.657Z,23.40
2018-07-10T00:15:43.260Z,23.50
2018-07-10T00:17:48.903Z,23.60
2018-07-10T00:22:06.074Z,23.70
2018-07-10T00:24:10.586Z,23.80
2018-07-10T00:26:14.604Z,24.00
2018-07-10T00:28:20.982Z,23.90
2018-07-10T00:30:27.660Z,23.70
2018-07-10T00:32:32.538Z,23.90
2018-07-10T00:34:38.484Z,23.90
2018-07-10T00:36:44.876Z,23.60
2018-07-10T00:39:01.935Z,23.70
2018-07-10T00:41:11.107Z,23.80
2018-07-10T00:43:22.845Z,23.80
2018-07-10T00:45:27.026Z,23.80
2018-07-10T00:50:30.735Z,23.90
2018-07-10T00:52:41.450Z,23.90
2018-07-10T00:54:50.505Z,23.90
2018-07-10T00:56:55.329Z,24.00
2018-07-10T00:58:59.653Z,24.00
2018-07-10T01:01:04.365Z,24.00
2018-07-10T01:05:12.504Z,24.00
2018-07-10T01:07:16.815Z,23.80
2018-07-10T01:09:21.426Z,23.80
2018-07-10T01:13:30.376Z,23.80
2018-07-10T01:15:34.316Z,23.70
2018-07-10T01:17:38.207Z,23.60
2018-07-10T01:19:42.300Z,23.50
2018-07-10T01:21:48.577Z,23.60
2018-07-10T01:24:00.084Z,23.60
2018-07-10T01:26:05.818Z,23.60
2018-07-10T01:28:09.666Z,23.60
2018-07-10T01:30:19.555Z,23.30
2018-07-10T01:32:27.663Z,23.20
2018-07-10T01:34:32.532Z,23.10
2018-07-10T01:36:37.331Z,23.00
2018-07-10T01:38:41.539Z,23.00
2018-07-10T01:40:49.258Z,23.10
2018-07-10T01:42:53.234Z,23.10
2018-07-10T01:44:57.447Z,22.90
2018-07-10T01:47:01.292Z,22.90
2018-07-10T01:49:05.262Z,22.70
2018-07-10T01:51:09.479Z,22.80
2018-07-10T01:53:13.370Z,22.90
2018-07-10T01:55:17.252Z,22.80
2018-07-10T01:59:25.265Z,22.60
2018-07-10T02:03:34.776Z,22.60
2018-07-10T02:05:39.034Z,22.40
2018-07-10T02:07:43.845Z,22.20
2018-07-10T02:09:48.614Z,22.30
2018-07-10T02:11:52.633Z,22.30
2018-07-10T02:13:56.508Z,22.10
2018-07-10T02:16:00.700Z,22.00
2018-07-10T02:18:04.645Z,22.00
2018-07-10T02:20:08.508Z,22.00
2018-07-10T02:22:15.036Z,21.90
2018-07-10T02:24:22.230Z,22.00
2018-07-10T02:26:27.470Z,21.90
2018-07-10T02:28:31.767Z,22.00
2018-07-10T02:30:35.666Z,22.10
2018-07-10T02:32:39.588Z,22.30
2018-07-10T02:34:43.682Z,22.40
2018-07-10T02:36:47.695Z,22.40
2018-07-10T02:38:55.905Z,22.40
2018-07-10T02:41:00.362Z,22.40
2018-07-10T02:43:04.354Z,22.30
2018-07-10T02:45:08.315Z,22.10
2018-07-10T02:47:14.199Z,22.00
2018-07-10T02:49:19.879Z,22.10
2018-07-10T02:51:23.862Z,21.90
2018-07-10T02:53:31.068Z,22.00
2018-07-10T02:55:35.115Z,21.90
2018-07-10T02:57:39.095Z,21.80
2018-07-10T02:59:44.318Z,21.90
2018-07-10T03:01:48.308Z,21.90
2018-07-10T03:03:52.169Z,21.80
2018-07-10T03:05:56.456Z,21.70
2018-07-10T03:08:02.025Z,21.60
2018-07-10T03:10:05.981Z,21.50
2018-07-10T03:12:10.900Z,21.60
2018-07-10T03:14:15.756Z,21.60
2018-07-10T03:16:19.685Z,21.50
2018-07-10T03:18:25.233Z,21.50
2018-07-10T03:20:29.105Z,21.60
2018-07-10T03:22:33.144Z,21.80
2018-07-10T03:26:40.761Z,21.80
2018-07-10T03:28:45.415Z,21.90
2018-07-10T03:30:49.308Z,21.80
2018-07-10T03:32:53.290Z,21.50
2018-07-10T03:34:57.466Z,21.40
2018-07-10T03:37:01.808Z,21.40
2018-07-10T03:39:06.172Z,21.50
2018-07-10T03:41:12.047Z,21.50
2018-07-10T03:43:16.532Z,21.60
2018-07-10T03:45:21.062Z,21.70
2018-07-10T03:47:26.468Z,21.80
2018-07-10T03:49:30.756Z,21.50
2018-07-10T03:51:34.779Z,21.60
2018-07-10T03:53:38.763Z,21.40
2018-07-10T03:55:43.968Z,21.40
2018-07-10T03:57:50.378Z,21.40
2018-07-10T03:59:57.881Z,21.40
2018-07-10T04:02:03.302Z,21.50
2018-07-10T04:04:07.234Z,21.30
2018-07-10T04:06:19.032Z,21.30
2018-07-10T04:08:24.831Z,21.30
2018-07-10T04:10:31.450Z,21.40
2018-07-10T04:12:37.394Z,21.40
2018-07-10T04:14:44.003Z,21.50
2018-07-10T04:16:48.832Z,21.50
2018-07-10T04:18:52.786Z,21.60
2018-07-10T04:23:04.540Z,21.60
2018-07-10T04:25:08.873Z,21.60
2018-07-10T04:27:19.365Z,21.50
2018-07-10T04:29:29.281Z,21.40
2018-07-10T04:31:40.899Z,21.40
2018-07-10T04:33:48.424Z,21.40
2018-07-10T04:35:52.274Z,21.30
2018-07-10T04:37:56.246Z,21.20
2018-07-10T04:40:00.510Z,21.00
2018-07-10T04:42:27.843Z,20.70
2018-07-10T04:44:33.475Z,20.30
2018-07-10T04:46:50.437Z,20.30
2018-07-10T04:49:02.995Z,20.20
2018-07-10T04:51:17.960Z,20.00
2018-07-10T04:53:34.922Z,19.70
2018-07-10T04:55:41.080Z,19.60
2018-07-10T04:58:19.481Z,19.50
2018-07-10T05:00:24.051Z,19.50
2018-07-10T05:02:29.577Z,19.50
2018-07-10T05:04:34.352Z,19.00
2018-07-10T05:06:42.303Z,18.50
2018-07-10T05:08:47.402Z,18.60
2018-07-10T05:11:09.201Z,18.70
2018-07-10T05:13:13.948Z,18.90
2018-07-10T05:15:17.871Z,18.80
2018-07-10T05:17:29.709Z,18.70
2018-07-10T05:19:33.652Z,18.50
2018-07-10T05:21:38.367Z,18.20
2018-07-10T05:23:43.405Z,18.30
2018-07-10T05:26:01.664Z,18.40
2018-07-10T05:28:10.685Z,18.40
2018-07-10T05:30:17.385Z,18.40
2018-07-10T05:32:22.955Z,18.50
2018-07-10T05:34:26.848Z,18.50
2018-07-10T05:36:30.801Z,18.50
2018-07-10T05:38:37.979Z,18.60
2018-07-10T05:40:41.934Z,18.50
2018-07-10T05:42:48.346Z,18.60
2018-07-10T05:44:52.303Z,18.60
2018-07-10T05:47:05.634Z,18.40
2018-07-10T05:49:10.237Z,18.30
2018-07-10T05:53:17.575Z,18.10
2018-07-10T05:55:32.095Z,18.00
2018-07-10T05:57:37.098Z,18.00
2018-07-10T05:59:47.825Z,17.90
2018-07-10T06:01:55.208Z,17.90
2018-07-10T06:03:59.952Z,17.80
2018-07-10T06:06:03.834Z,17.80
2018-07-10T06:08:09.278Z,17.80
2018-07-10T06:10:13.218Z,18.00
2018-07-10T06:12:42.721Z,18.30
2018-07-10T06:14:52.373Z,18.40
2018-07-10T06:16:56.415Z,18.40
2018-07-10T06:21:22.429Z,18.50
2018-07-10T06:23:30.798Z,18.70
2018-07-10T06:25:35.650Z,19.00
2018-07-10T06:30:03.768Z,19.40
2018-07-10T06:32:09.336Z,19.60
2018-07-10T06:34:26.335Z,19.90
2018-07-10T06:36:35.428Z,20.30
2018-07-10T06:38:43.354Z,20.60
2018-07-10T06:40:52.694Z,20.60
2018-07-10T06:52:25.857Z,20.50
2018-07-10T06:54:40.922Z,20.80
2018-07-10T06:56:47.727Z,20.70
2018-07-10T06:58:53.595Z,20.50
2018-07-10T07:03:15.510Z,20.70
2018-07-10T07:05:25.677Z,20.80
2018-07-10T07:07:33.496Z,20.80
2018-07-10T07:09:45.352Z,20.80
2018-07-10T07:11:51.793Z,20.30
2018-07-10T07:14:02.013Z,20.40
2018-07-10T07:16:08.284Z,20.20
2018-07-10T07:18:13.790Z,20.00
2018-07-10T07:20:20.179Z,20.10
2018-07-10T07:23:22.949Z,19.90
2018-07-10T07:25:28.301Z,20.10
2018-07-10T07:27:36.439Z,19.40
2018-07-10T07:29:42.531Z,19.30
2018-07-10T07:31:46.722Z,19.40
2018-07-10T07:33:50.704Z,19.50
2018-07-10T07:35:56.006Z,19.40
2018-07-10T07:38:00.757Z,19.30
2018-07-10T07:40:06.418Z,19.70
2018-07-10T07:42:11.494Z,19.80
2018-07-10T07:44:17.342Z,19.90
2018-07-10T07:46:27.318Z,20.20
2018-07-10T07:48:39.056Z,20.30
2018-07-10T07:50:47.674Z,20.50
2018-07-10T07:52:54.304Z,20.80
2018-07-10T07:55:00.041Z,20.90
2018-07-10T07:57:04.518Z,21.10
2018-07-10T07:59:10.447Z,21.10
2018-07-10T08:01:15.839Z,20.80
2018-07-10T08:03:19.884Z,21.40
2018-07-10T08:05:25.814Z,22.20
2018-07-10T08:07:29.733Z,22.70
2018-07-10T08:09:36.393Z,23.00
2018-07-10T08:11:51.421Z,23.40
2018-07-10T08:13:56.913Z,23.40
2018-07-10T08:16:03.272Z,23.60
2018-07-10T08:18:08.409Z,23.50
2018-07-10T08:20:23.558Z,23.50
2018-07-10T08:22:31.308Z,23.70
2018-07-10T08:24:37.544Z,23.50
2018-07-10T08:26:42.550Z,23.40
2018-07-10T08:28:47.645Z,23.10
2018-07-10T08:30:52.649Z,23.10
2018-07-10T08:33:02.984Z,23.10
2018-07-10T08:35:10.744Z,23.60
2018-07-10T08:37:15.164Z,23.70
2018-07-10T08:39:26.657Z,23.30
2018-07-10T08:41:43.249Z,23.30
2018-07-10T08:43:47.653Z,23.20
2018-07-10T08:45:57.077Z,23.20
2018-07-10T08:48:03.748Z,23.10
2018-07-10T08:52:23.094Z,23.40
2018-07-10T08:54:30.374Z,23.40
2018-07-10T08:56:34.618Z,23.40
2018-07-10T09:00:42.771Z,23.90
2018-07-10T09:02:49.479Z,23.80
2018-07-10T09:04:53.956Z,23.80
2018-07-10T09:06:59.710Z,23.90
2018-07-10T09:09:21.095Z,23.80
2018-07-10T09:11:27.853Z,23.80
2018-07-10T09:13:31.836Z,23.90
2018-07-10T09:15:38.752Z,23.90
2018-07-10T09:17:44.378Z,24.00
2018-07-10T09:19:49.368Z,23.60
2018-07-10T09:22:10.998Z,23.70
2018-07-10T09:24:16.426Z,24.00
2018-07-10T09:26:22.739Z,24.30
2018-07-10T09:28:29.168Z,24.30
2018-07-10T09:30:35.715Z,24.40
2018-07-10T09:32:46.300Z,24.50
2018-07-10T09:34:50.993Z,24.70
2018-07-10T09:36:56.080Z,24.90
2018-07-10T09:39:03.842Z,25.10
2018-07-10T09:41:09.568Z,25.10
2018-07-10T09:43:15.156Z,25.00
2018-07-10T09:45:19.768Z,25.30
2018-07-10T09:47:29.231Z,25.50
2018-07-10T09:49:44.140Z,25.70
2018-07-10T09:51:50.374Z,25.90
2018-07-10T09:54:05.182Z,26.40
2018-07-10T09:58:17.391Z,26.30
2018-07-10T10:00:35.276Z,26.00
2018-07-10T10:02:41.960Z,25.70
2018-07-10T10:04:46.480Z,25.10
2018-07-10T10:06:51.412Z,24.70
2018-07-10T10:08:55.552Z,24.20
2018-07-10T10:11:01.160Z,23.80
2018-07-10T10:13:05.208Z,23.40
2018-07-10T10:15:22.561Z,23.20
2018-07-10T10:17:29.501Z,23.20
2018-07-10T10:19:34.173Z,23.40
2018-07-10T10:21:39.879Z,23.50
2018-07-10T10:23:45.861Z,23.50
2018-07-10T10:25:51.314Z,23.70
2018-07-10T10:27:55.861Z,23.80
2018-07-10T10:30:01.645Z,24.10
2018-07-10T10:32:09.373Z,24.40
2018-07-10T10:34:17.692Z,24.30
2018-07-10T10:36:21.855Z,24.10
2018-07-10T10:38:26.287Z,24.30
2018-07-10T10:40:34.653Z,24.50
2018-07-10T10:42:39.761Z,25.00
2018-07-10T10:44:44.667Z,25.00
2018-07-10T10:46:51.012Z,25.00
2018-07-10T10:48:55.745Z,25.30
2018-07-10T10:53:07.918Z,25.70
2018-07-10T10:55:12.754Z,26.20
2018-07-10T10:59:24.776Z,26.70
2018-07-10T11:01:30.999Z,27.00
2018-07-10T11:03:39.132Z,27.30
2018-07-10T11:05:47.095Z,26.80
2018-07-10T11:07:55.051Z,26.50
2018-07-10T12:24:48.852Z,27.30
2018-07-10T12:37:11.037Z,27.10
2018-07-10T12:39:17.759Z,26.80
2018-07-10T12:56:05.759Z,25.60
2018-07-10T13:08:57.302Z,25.70
2018-07-10T13:11:01.585Z,25.50
2018-07-10T13:13:15.357Z,25.30
2018-07-10T13:15:20.165Z,25.00
2018-07-10T13:17:27.784Z,25.00
2018-07-10T13:19:33.723Z,24.70
2018-07-10T13:22:11.060Z,24.80
2018-07-10T13:24:28.033Z,24.80
2018-07-10T13:26:44.199Z,24.90
2018-07-10T13:28:52.032Z,25.00
2018-07-10T13:30:57.167Z,24.80
2018-07-10T13:33:08.851Z,24.50
2018-07-10T13:35:28.430Z,24.50
2018-07-10T13:38:33.301Z,24.60
2018-07-10T13:40:40.902Z,24.60
2018-07-10T13:43:09.840Z,24.60
2018-07-10T13:45:18.337Z,24.80
2018-07-10T13:47:23.586Z,24.80
2018-07-10T13:49:28.361Z,25.00
2018-07-10T13:51:35.507Z,24.70
2018-07-10T13:53:46.272Z,24.30
2018-07-10T14:10:18.654Z,24.00
2018-07-10T14:12:25.767Z,24.90
2018-07-10T14:23:33.464Z,25.60
2018-07-10T14:36:55.213Z,25.50
2018-07-10T14:39:00.341Z,25.40
2018-07-10T14:41:06.768Z,25.80
2018-07-10T14:45:56.789Z,25.80
2018-07-10T14:48:08.636Z,26.00
2018-07-10T14:52:50.458Z,25.80
2018-07-10T14:54:56.322Z,25.80
2018-07-10T14:57:01.386Z,26.00
2018-07-10T14:59:09.896Z,26.00
2018-07-10T15:01:14.754Z,26.00
2018-07-10T15:03:22.320Z,25.90
2018-07-10T15:05:27.363Z,25.90
2018-07-10T15:07:38.450Z,25.90
2018-07-10T15:09:42.477Z,25.90
2018-07-10T15:11:47.787Z,26.00
2018-07-10T15:14:07.855Z,26.50
2018-07-10T15:18:21.737Z,26.70
2018-07-10T15:20:27.459Z,26.70
2018-07-10T15:22:32.056Z,26.80
2018-07-10T15:24:48.888Z,26.40
2018-07-10T15:29:09.450Z,26.00
2018-07-10T15:31:16.771Z,26.10
2018-07-10T15:33:23.839Z,25.80
2018-07-10T15:35:29.798Z,25.70
2018-07-10T15:37:35.900Z,25.60
2018-07-10T15:39:41.524Z,25.60
2018-07-10T15:41:46.031Z,25.60
2018-07-10T15:43:53.039Z,25.60
2018-07-10T15:45:57.539Z,25.30
2018-07-10T15:48:06.439Z,25.10
2018-07-10T15:50:12.485Z,24.80
2018-07-10T15:52:23.039Z,24.30
2018-07-10T15:54:27.421Z,24.30
2018-07-10T15:56:38.458Z,24.30
2018-07-10T15:58:43.269Z,24.00
2018-07-10T16:00:47.302Z,24.10
2018-07-10T16:02:52.728Z,23.90
2018-07-10T16:04:56.745Z,23.90
2018-07-10T16:07:01.801Z,24.20
2018-07-10T16:09:14.434Z,24.30
2018-07-10T16:11:19.836Z,24.60
2018-07-10T16:13:25.847Z,24.80
2018-07-10T16:15:33.063Z,25.10
2018-07-10T16:17:39.389Z,25.30
2018-07-10T16:19:46.844Z,25.80
2018-07-10T16:22:05.887Z,26.20
2018-07-10T16:24:29.686Z,26.40
2018-07-10T16:26:33.828Z,26.50
2018-07-10T16:28:43.089Z,26.20
2018-07-10T16:30:51.379Z,26.10
2018-07-10T16:32:58.604Z,26.00
2018-07-10T16:35:03.383Z,25.60
2018-07-10T16:37:07.749Z,25.50
2018-07-10T16:39:12.568Z,25.30
2018-07-10T16:41:24.261Z,24.90
2018-07-10T16:43:31.361Z,24.70
2018-07-10T16:45:38.283Z,24.70
2018-07-10T16:47:53.911Z,24.70
2018-07-10T16:50:02.563Z,24.50
2018-07-10T16:52:24.705Z,24.40
2018-07-10T16:54:31.203Z,24.30
2018-07-10T16:56:36.405Z,24.30
2018-07-10T16:58:41.732Z,24.30
2018-07-10T17:00:47.039Z,24.20
2018-07-10T17:02:51.011Z,24.20
2018-07-10T17:04:55.019Z,24.00
2018-07-10T17:07:01.568Z,23.80
2018-07-10T17:09:05.820Z,23.80
2018-07-10T17:13:14.355Z,23.70
2018-07-10T17:15:22.676Z,23.40
2018-07-10T17:17:32.135Z,23.30
2018-07-10T17:19:41.829Z,23.10
2018-07-10T17:21:49.424Z,23.00
2018-07-10T17:24:04.897Z,22.80
2018-07-10T17:26:09.009Z,23.60
2018-07-10T17:28:15.319Z,24.80
2018-07-10T17:30:23.274Z,25.60
2018-07-10T17:32:44.931Z,25.60
2018-07-10T17:34:59.006Z,25.00
2018-07-10T17:37:17.800Z,24.80
2018-07-10T17:39:37.176Z,24.80
2018-07-10T17:43:50.777Z,24.60
2018-07-10T17:46:03.653Z,24.70
2018-07-10T17:48:09.179Z,24.60
2018-07-10T17:50:14.009Z,24.80
2018-07-10T17:52:19.413Z,25.30
2018-07-10T17:54:27.673Z,26.00
2018-07-10T17:56:35.103Z,26.30
2018-07-10T17:58:39.447Z,26.50
2018-07-10T18:00:50.451Z,26.50
2018-07-10T18:02:54.797Z,26.30
2018-07-10T18:07:15.269Z,26.80
2018-07-10T18:11:30.801Z,26.10
2018-07-10T18:13:38.380Z,25.60
2018-07-10T18:15:47.523Z,25.20
2018-07-10T18:17:58.714Z,24.80
2018-07-10T18:20:07.787Z,24.40
2018-07-10T18:22:16.084Z,24.20
2018-07-10T18:24:33.081Z,23.90
2018-07-10T18:26:38.645Z,23.60
2018-07-10T18:28:45.874Z,23.40
2018-07-10T18:30:52.559Z,23.30
2018-07-10T18:32:58.079Z,23.00
2018-07-10T18:35:06.510Z,22.90
2018-07-10T18:37:10.771Z,22.70
2018-07-10T18:39:21.801Z,22.50
2018-07-10T18:41:29.388Z,22.30
2018-07-10T18:43:37.189Z,22.20
2018-07-10T18:45:43.394Z,22.20
2018-07-10T18:47:57.644Z,22.10
2018-07-10T18:50:28.534Z,22.00
2018-07-10T18:52:41.073Z,22.10
2018-07-10T18:54:48.332Z,22.00
2018-07-10T18:56:54.275Z,22.10
2018-07-10T18:59:10.653Z,22.10
2018-07-10T19:02:23.113Z,22.20
2018-07-10T19:05:33.026Z,22.20
2018-07-10T19:07:43.075Z,22.10
2018-07-10T19:09:50.250Z,22.10
2018-07-10T19:11:57.670Z,22.10
2018-07-10T19:14:03.057Z,22.10
2018-07-10T19:16:07.839Z,22.10
2018-07-10T19:18:13.657Z,22.00
2018-07-10T19:22:49.743Z,21.90
2018-07-10T19:24:54.359Z,21.80
2018-07-10T19:27:00.431Z,21.90
2018-07-10T19:29:15.713Z,21.80
2018-07-10T19:31:26.858Z,21.80
2018-07-10T19:33:31.210Z,21.80
2018-07-10T19:35:38.542Z,21.80
2018-07-10T19:37:44.266Z,21.70
2018-07-10T19:42:00.231Z,21.70
2018-07-10T19:44:05.328Z,21.50
2018-07-10T19:46:11.845Z,21.40
2018-07-10T19:48:17.388Z,21.20
2018-07-10T19:50:22.938Z,21.10
2018-07-10T19:58:16.529Z,21.10
2018-07-10T20:00:26.269Z,21.10
2018-07-10T20:02:31.394Z,20.90
2018-07-10T20:05:01.266Z,20.70
2018-07-10T20:07:12.812Z,20.50
2018-07-10T20:11:42.214Z,20.20
2018-07-10T20:13:51.249Z,19.90
2018-07-10T20:16:05.194Z,19.60
2018-07-10T20:22:38.219Z,19.20
2018-07-10T20:26:07.524Z,18.90
2018-07-10T20:30:36.431Z,18.00
2018-07-10T20:32:54.325Z,17.80
2018-07-10T20:35:17.201Z,17.60
2018-07-10T20:37:31.764Z,17.50
2018-07-10T20:39:38.445Z,17.60
2018-07-10T20:41:46.475Z,17.50
2018-07-10T20:43:54.039Z,17.50
2018-07-10T20:46:00.279Z,17.50
2018-07-10T20:51:06.461Z,17.40
2018-07-10T20:59:31.836Z,17.70
2018-07-10T21:01:43.278Z,17.70
2018-07-10T21:03:53.250Z,17.90
2018-07-10T21:06:07.744Z,18.00
2018-07-10T21:08:20.372Z,18.10
2018-07-10T21:10:45.361Z,18.10
2018-07-10T21:13:01.125Z,18.10
2018-07-10T21:15:13.389Z,18.10
2018-07-10T21:17:26.651Z,18.10
2018-07-10T21:19:57.801Z,18.10
2018-07-10T21:22:13.055Z,18.00
2018-07-10T21:24:23.533Z,17.90
2018-07-10T21:26:55.484Z,17.90
2018-07-10T21:29:12.644Z,17.80
2018-07-10T21:31:56.741Z,17.80
2018-07-10T21:34:09.422Z,17.70
2018-07-10T21:36:19.892Z,17.70
2018-07-10T21:38:36.201Z,17.70
2018-07-10T21:49:55.897Z,17.70
2018-07-10T21:51:59.939Z,17.70
2018-07-10T21:54:05.784Z,17.70
2018-07-10T21:58:13.306Z,17.70
2018-07-10T22:00:20.504Z,17.50
2018-07-10T22:02:28.439Z,17.40
2018-07-10T22:04:34.713Z,17.20
2018-07-10T22:06:41.373Z,17.30
2018-07-10T22:08:47.406Z,17.30
2018-07-10T22:10:51.292Z,17.20
2018-07-10T22:13:02.244Z,17.20
2018-07-10T22:15:07.936Z,17.20
2018-07-10T22:17:22.517Z,17.20
2018-07-10T22:19:29.837Z,17.30
2018-07-10T22:21:35.225Z,17.30
2018-07-10T22:23:40.944Z,17.30
2018-07-10T22:27:48.930Z,17.20
2018-07-10T22:30:02.086Z,17.20
2018-07-10T22:32:11.360Z,17.10
2018-07-10T22:34:20.483Z,17.20
2018-07-10T22:36:25.437Z,17.10
2018-07-10T22:38:30.792Z,17.20
2018-07-10T22:40:36.558Z,17.10
2018-07-10T22:42:42.430Z,17.00
2018-07-10T22:44:52.755Z,17.00
2018-07-10T22:47:00.125Z,16.90
2018-07-10T22:49:08.720Z,16.90
2018-07-10T22:51:13.463Z,17.00
2018-07-10T22:53:17.510Z,17.00
2018-07-10T22:55:28.441Z,17.00
2018-07-10T22:57:32.359Z,16.90
2018-07-10T22:59:39.476Z,16.90
2018-07-10T23:01:44.176Z,16.90
2018-07-10T23:03:49.518Z,16.90
2018-07-10T23:05:56.467Z,16.90
2018-07-10T23:08:00.456Z,17.00
2018-07-10T23:10:06.257Z,17.10
2018-07-10T23:12:10.562Z,16.90
2018-07-10T23:14:16.634Z,16.90
2018-07-10T23:16:20.741Z,17.00
2018-07-10T23:18:28.015Z,16.90
2018-07-10T23:20:34.765Z,16.70
2018-07-10T23:22:52.476Z,16.60
2018-07-10T23:24:56.503Z,16.60
2018-07-10T23:27:02.486Z,16.70
2018-07-10T23:29:07.263Z,16.70
2018-07-10T23:31:14.961Z,16.90
2018-07-10T23:33:19.617Z,17.00
2018-07-10T23:35:23.930Z,17.10
2018-07-10T23:37:31.903Z,17.20
2018-07-10T23:39:46.027Z,17.10
2018-07-10T23:41:53.349Z,17.00
2018-07-10T23:43:59.120Z,17.10
2018-07-10T23:46:05.773Z,17.20
2018-07-10T23:48:10.355Z,17.20
2018-07-10T23:50:33.223Z,17.20
2018-07-10T23:53:22.679Z,17.20
2018-07-10T23:55:26.765Z,17.20
2018-07-10T23:57:30.736Z,17.20
2018-07-10T23:59:36.898Z,17.10
